createdAt,value
2016-06-01T00:00:02.585Z,0
2016-06-01T00:01:02.588Z,0
2016-06-01T00:02:02.278Z,0
2016-06-01T00:03:02.547Z,0
2016-06-01T00:04:02.549Z,0
2016-06-01T00:05:02.536Z,0
2016-06-01T00:06:02.523Z,0
2016-06-01T00:07:02.510Z,0
2016-06-01T00:08:02.497Z,0
2016-06-01T00:09:03.327Z,0
2016-06-01T00:10:02.509Z,0
2016-06-01T00:11:02.553Z,0
2016-06-01T00:12:02.394Z,0
2016-06-01T00:13:02.549Z,0
2016-06-01T00:14:02.561Z,0
2016-06-01T00:15:02.405Z,0
2016-06-01T00:16:02.573Z,0
2016-06-01T00:17:02.570Z,0
2016-06-01T00:18:02.582Z,0
2016-06-01T00:19:02.563Z,0
2016-06-01T00:20:03.024Z,0
2016-06-01T00:21:02.561Z,0
2016-06-01T00:22:02.536Z,0
2016-06-01T00:23:02.386Z,0
2016-06-01T00:24:02.236Z,0
2016-06-01T00:25:02.552Z,0
2016-06-01T00:26:02.509Z,0
2016-06-01T00:27:02.497Z,0
2016-06-01T00:28:02.517Z,0
2016-06-01T00:29:02.474Z,0
2016-06-01T00:30:02.493Z,0
2016-06-01T00:31:02.464Z,0
2016-06-01T00:32:02.483Z,0
2016-06-01T00:33:02.299Z,0
2016-06-01T00:34:02.442Z,0
2016-06-01T00:35:02.289Z,0
2016-06-01T00:36:02.417Z,0
2016-06-01T00:37:02.404Z,0
2016-06-01T00:38:02.453Z,0
2016-06-01T00:39:03.519Z,0
2016-06-01T00:40:02.397Z,0
2016-06-01T00:41:02.384Z,0
2016-06-01T00:42:02.199Z,0
2016-06-01T00:43:02.373Z,0
2016-06-01T00:44:02.344Z,0
2016-06-01T00:45:02.332Z,0
2016-06-01T00:46:02.319Z,0
2016-06-01T00:47:02.149Z,0
2016-06-01T00:48:02.293Z,0
2016-06-01T00:49:02.124Z,0
2016-06-01T00:50:02.267Z,0
2016-06-01T00:51:02.254Z,0
2016-06-01T00:52:02.241Z,0
2016-06-01T00:53:02.244Z,0
2016-06-01T00:54:02.527Z,0
2016-06-01T00:55:02.234Z,0
2016-06-01T00:56:02.205Z,0
2016-06-01T00:57:02.051Z,0
2016-06-01T00:58:02.179Z,0
2016-06-01T00:59:02.026Z,0
2016-06-01T01:00:02.012Z,0
2016-06-01T01:01:02.156Z,0
2016-06-01T01:02:01.987Z,0
2016-06-01T01:03:01.990Z,0
2016-06-01T01:04:02.148Z,0
2016-06-01T01:05:02.120Z,0
2016-06-01T01:06:02.106Z,0
2016-06-01T01:07:01.922Z,0
2016-06-01T01:08:02.097Z,0
2016-06-01T01:09:02.100Z,0
2016-06-01T01:10:02.274Z,0
2016-06-01T01:11:02.058Z,0
2016-06-01T01:12:02.030Z,0
2016-06-01T01:13:01.875Z,0
2016-06-01T01:14:01.722Z,0
2016-06-01T01:15:01.850Z,0
2016-06-01T01:16:01.837Z,0
2016-06-01T01:17:01.980Z,0
2016-06-01T01:18:01.827Z,0
2016-06-01T01:19:01.969Z,0
2016-06-01T01:20:01.957Z,0
2016-06-01T01:21:01.944Z,0
2016-06-01T01:22:01.947Z,0
2016-06-01T01:23:01.918Z,0
2016-06-01T01:24:01.905Z,0
2016-06-01T01:25:01.908Z,0
2016-06-01T01:26:01.895Z,0
2016-06-01T01:27:01.882Z,0
2016-06-01T01:28:01.854Z,0
2016-06-01T01:29:01.857Z,0
2016-06-01T01:30:01.843Z,0
2016-06-01T01:31:01.845Z,0
2016-06-01T01:32:01.833Z,0
2016-06-01T01:33:01.820Z,0
2016-06-01T01:34:01.807Z,0
2016-06-01T01:35:01.653Z,0
2016-06-01T01:36:01.781Z,0
2016-06-01T01:37:01.768Z,0
2016-06-01T01:38:01.756Z,0
2016-06-01T01:39:02.523Z,0
2016-06-01T01:40:01.745Z,0
2016-06-01T01:41:01.591Z,0
2016-06-01T01:42:01.719Z,0
2016-06-01T01:43:01.566Z,0
2016-06-01T01:44:01.694Z,0
2016-06-01T01:45:01.524Z,0
2016-06-01T01:46:01.699Z,0
2016-06-01T01:47:01.514Z,0
2016-06-01T01:48:01.658Z,0
2016-06-01T01:49:01.644Z,0
2016-06-01T01:50:01.632Z,0
2016-06-01T01:51:01.463Z,0
2016-06-01T01:52:01.605Z,0
2016-06-01T01:53:01.436Z,0
2016-06-01T01:54:01.704Z,0
2016-06-01T01:55:01.441Z,0
2016-06-01T01:56:01.616Z,0
2016-06-01T01:57:01.401Z,0
2016-06-01T01:58:01.559Z,0
2016-06-01T01:59:01.546Z,0
2016-06-01T02:00:01.534Z,0
2016-06-01T02:01:01.520Z,0
2016-06-01T02:02:01.507Z,0
2016-06-01T02:03:01.337Z,0
2016-06-01T02:04:01.482Z,0
2016-06-01T02:05:01.484Z,0
2016-06-01T02:06:01.456Z,0
2016-06-01T02:07:01.146Z,0
2016-06-01T02:08:01.289Z,0
2016-06-01T02:09:01.275Z,0
2016-06-01T02:10:01.279Z,0
2016-06-01T02:11:01.406Z,0
2016-06-01T02:12:01.394Z,0
2016-06-01T02:13:01.225Z,0
2016-06-01T02:14:01.227Z,0
2016-06-01T02:15:01.402Z,0
2016-06-01T02:16:01.405Z,0
2016-06-01T02:17:01.345Z,0
2016-06-01T02:18:01.332Z,0
2016-06-01T02:19:01.335Z,0
2016-06-01T02:20:01.149Z,0
2016-06-01T02:21:01.308Z,0
2016-06-01T02:22:01.296Z,0
2016-06-01T02:23:01.282Z,0
2016-06-01T02:24:01.817Z,0
2016-06-01T02:25:01.272Z,0
2016-06-01T02:26:01.243Z,0
2016-06-01T02:27:01.074Z,0
2016-06-01T02:28:01.234Z,0
2016-06-01T02:29:01.220Z,0
2016-06-01T02:30:01.208Z,0
2016-06-01T02:31:01.211Z,0
2016-06-01T02:32:01.181Z,0
2016-06-01T02:33:01.169Z,0
2016-06-01T02:34:01.156Z,0
2016-06-01T02:35:01.143Z,0
2016-06-01T02:36:00.974Z,0
2016-06-01T02:37:01.117Z,0
2016-06-01T02:38:01.119Z,0
2016-06-01T02:39:01.247Z,0
2016-06-01T02:40:01.094Z,0
2016-06-01T02:41:01.081Z,0
2016-06-01T02:42:01.084Z,0
2016-06-01T02:43:00.900Z,0
2016-06-01T02:44:00.886Z,0
2016-06-01T02:45:01.029Z,0
2016-06-01T02:46:00.860Z,0
2016-06-01T02:47:00.863Z,4
2016-06-01T02:48:00.944Z,4
2016-06-01T02:49:01.056Z,4
2016-06-01T02:50:00.980Z,4
2016-06-01T02:51:00.732Z,0
2016-06-01T02:52:00.798Z,4
2016-06-01T02:53:01.020Z,4
2016-06-01T02:54:01.600Z,4
2016-06-01T02:55:00.619Z,8
2016-06-01T02:56:00.919Z,4
2016-06-01T02:57:00.765Z,8
2016-06-01T02:58:00.892Z,4
2016-06-01T02:59:00.880Z,8
2016-06-01T03:00:00.882Z,8
2016-06-01T03:01:00.698Z,12
2016-06-01T03:02:00.747Z,12
2016-06-01T03:03:00.843Z,12
2016-06-01T03:04:00.517Z,12
2016-06-01T03:05:00.818Z,12
2016-06-01T03:06:00.492Z,20
2016-06-01T03:07:00.807Z,20
2016-06-01T03:08:00.795Z,20
2016-06-01T03:09:00.625Z,20
2016-06-01T03:10:00.768Z,20
2016-06-01T03:11:00.599Z,24
2016-06-01T03:12:00.603Z,24
2016-06-01T03:13:00.730Z,24
2016-06-01T03:14:00.811Z,24
2016-06-01T03:15:00.719Z,28
2016-06-01T03:16:00.691Z,32
2016-06-01T03:17:00.522Z,36
2016-06-01T03:18:00.665Z,40
2016-06-01T03:19:00.667Z,44
2016-06-01T03:20:00.639Z,40
2016-06-01T03:21:00.658Z,44
2016-06-01T03:22:00.629Z,44
2016-06-01T03:23:00.632Z,44
2016-06-01T03:24:00.463Z,48
2016-06-01T03:25:00.653Z,48
2016-06-01T03:26:00.593Z,48
2016-06-01T03:27:00.580Z,52
2016-06-01T03:28:00.567Z,48
2016-06-01T03:29:00.554Z,48
2016-06-01T03:30:00.541Z,48
2016-06-01T03:31:00.529Z,48
2016-06-01T03:32:00.532Z,48
2016-06-01T03:33:00.205Z,44
2016-06-01T03:34:00.348Z,44
2016-06-01T03:35:00.476Z,44
2016-06-01T03:36:00.323Z,44
2016-06-01T03:37:00.310Z,40
2016-06-01T03:38:00.298Z,40
2016-06-01T03:39:01.659Z,44
2016-06-01T03:40:00.442Z,48
2016-06-01T03:41:00.414Z,52
2016-06-01T03:42:00.401Z,60
2016-06-01T03:43:00.248Z,60
2016-06-01T03:44:00.235Z,72
2016-06-01T03:45:00.223Z,72
2016-06-01T03:46:00.380Z,84
2016-06-01T03:47:00.367Z,88
2016-06-01T03:48:00.339Z,92
2016-06-01T03:49:00.358Z,96
2016-06-01T03:50:00.329Z,96
2016-06-01T03:51:00.333Z,108
2016-06-01T03:52:00.146Z,120
2016-06-01T03:53:00.291Z,156
2016-06-01T03:54:00.606Z,196
2016-06-01T03:54:59.968Z,236
2016-06-01T03:56:00.267Z,268
2016-06-01T03:57:00.099Z,300
2016-06-01T03:58:00.241Z,320
2016-06-01T03:59:00.088Z,320
2016-06-01T04:00:00.231Z,392
2016-06-01T04:01:00.202Z,440
2016-06-01T04:01:59.893Z,472
2016-06-01T04:03:00.021Z,580
2016-06-01T04:04:00.180Z,668
2016-06-01T04:05:00.165Z,712
2016-06-01T04:06:00.154Z,736
2016-06-01T04:07:00.141Z,748
2016-06-01T04:08:00.128Z,768
2016-06-01T04:08:59.959Z,768
2016-06-01T04:10:00.134Z,748
2016-06-01T04:11:00.089Z,712
2016-06-01T04:12:00.092Z,708
2016-06-01T04:12:59.923Z,720
2016-06-01T04:13:59.909Z,760
2016-06-01T04:15:00.053Z,812
2016-06-01T04:15:59.884Z,864
2016-06-01T04:17:00.027Z,908
2016-06-01T04:18:00.014Z,944
2016-06-01T04:18:59.844Z,960
2016-06-01T04:19:59.989Z,952
2016-06-01T04:20:59.834Z,928
2016-06-01T04:21:59.962Z,896
2016-06-01T04:22:59.949Z,884
2016-06-01T04:23:59.796Z,960
2016-06-01T04:24:59.829Z,1064
2016-06-01T04:25:59.927Z,1160
2016-06-01T04:26:59.944Z,1184
2016-06-01T04:27:59.932Z,1112
2016-06-01T04:28:59.605Z,1128
2016-06-01T04:29:59.891Z,1196
2016-06-01T04:30:59.892Z,1244
2016-06-01T04:31:59.896Z,1356
2016-06-01T04:32:59.866Z,1456
2016-06-01T04:33:59.698Z,1588
2016-06-01T04:34:59.826Z,1668
2016-06-01T04:35:59.812Z,1764
2016-06-01T04:36:59.659Z,1832
2016-06-01T04:37:59.646Z,1972
2016-06-01T04:39:00.008Z,2048
2016-06-01T04:39:59.620Z,2116
2016-06-01T04:40:59.763Z,2224
2016-06-01T04:41:59.750Z,2288
2016-06-01T04:42:59.612Z,2364
2016-06-01T04:43:59.740Z,2420
2016-06-01T04:44:59.727Z,2468
2016-06-01T04:45:59.589Z,2544
2016-06-01T04:46:59.717Z,2608
2016-06-01T04:47:59.688Z,2736
2016-06-01T04:48:59.676Z,2840
2016-06-01T04:49:59.662Z,3016
2016-06-01T04:50:59.664Z,3176
2016-06-01T04:51:59.528Z,3164
2016-06-01T04:52:59.655Z,2876
2016-06-01T04:53:59.797Z,2908
2016-06-01T04:54:59.614Z,2852
2016-06-01T04:55:59.460Z,2648
2016-06-01T04:56:59.291Z,2668
2016-06-01T04:57:59.590Z,2572
2016-06-01T04:58:59.422Z,2508
2016-06-01T04:59:59.580Z,2584
2016-06-01T05:00:59.614Z,2552
2016-06-01T05:01:59.538Z,2556
2016-06-01T05:02:59.526Z,2552
2016-06-01T05:03:59.529Z,2584
2016-06-01T05:04:59.609Z,2732
2016-06-01T05:05:59.518Z,2692
2016-06-01T05:06:59.490Z,2576
2016-06-01T05:07:59.493Z,2608
2016-06-01T05:08:59.480Z,2740
2016-06-01T05:09:59.482Z,2988
2016-06-01T05:10:59.672Z,3336
2016-06-01T05:11:59.440Z,3892
2016-06-01T05:12:59.287Z,4376
2016-06-01T05:13:59.430Z,4328
2016-06-01T05:14:59.417Z,4368
2016-06-01T05:15:59.404Z,4556
2016-06-01T05:16:59.392Z,4344
2016-06-01T05:17:59.378Z,3948
2016-06-01T05:18:59.365Z,3852
2016-06-01T05:19:59.353Z,3920
2016-06-01T05:20:59.340Z,3908
2016-06-01T05:21:59.342Z,3908
2016-06-01T05:22:59.172Z,3980
2016-06-01T05:23:59.770Z,3984
2016-06-01T05:24:59.335Z,3944
2016-06-01T05:25:59.291Z,3992
2016-06-01T05:26:59.294Z,3980
2016-06-01T05:27:59.280Z,3672
2016-06-01T05:28:59.267Z,3440
2016-06-01T05:29:59.255Z,3116
2016-06-01T05:30:59.241Z,3272
2016-06-01T05:31:59.085Z,3736
2016-06-01T05:32:59.229Z,4132
2016-06-01T05:33:59.216Z,4112
2016-06-01T05:34:59.218Z,4256
2016-06-01T05:35:59.049Z,4680
2016-06-01T05:36:59.193Z,5216
2016-06-01T05:37:59.180Z,5316
2016-06-01T05:38:59.041Z,5320
2016-06-01T05:39:59.029Z,5308
2016-06-01T05:40:59.171Z,5348
2016-06-01T05:41:59.143Z,5512
2016-06-01T05:42:58.849Z,5540
2016-06-01T05:43:58.976Z,5744
2016-06-01T05:44:59.120Z,5736
2016-06-01T05:45:58.951Z,5672
2016-06-01T05:46:58.938Z,5304
2016-06-01T05:47:59.097Z,5204
2016-06-01T05:48:58.943Z,5088
2016-06-01T05:49:59.056Z,5068
2016-06-01T05:50:58.903Z,4824
2016-06-01T05:51:59.045Z,4756
2016-06-01T05:52:59.033Z,4592
2016-06-01T05:53:59.910Z,4680
2016-06-01T05:54:58.881Z,4644
2016-06-01T05:55:59.009Z,4448
2016-06-01T05:56:59.012Z,4576
2016-06-01T05:57:58.999Z,5076
2016-06-01T05:58:58.830Z,4888
2016-06-01T05:59:58.848Z,4972
2016-06-01T06:00:59.039Z,4536
2016-06-01T06:01:58.963Z,4572
2016-06-01T06:02:58.950Z,4968
2016-06-01T06:03:58.938Z,4544
2016-06-01T06:04:58.940Z,4168
2016-06-01T06:05:58.926Z,3864
2016-06-01T06:06:58.929Z,3728
2016-06-01T06:07:58.916Z,3564
2016-06-01T06:08:59.466Z,3452
2016-06-01T06:09:58.749Z,3276
2016-06-01T06:10:58.893Z,3116
2016-06-01T06:11:58.724Z,2968
2016-06-01T06:12:58.868Z,3140
2016-06-01T06:13:58.699Z,3148
2016-06-01T06:14:58.873Z,3152
2016-06-01T06:15:58.937Z,3260
2016-06-01T06:16:58.831Z,3380
2016-06-01T06:17:58.850Z,3620
2016-06-01T06:18:58.820Z,3528
2016-06-01T06:19:58.792Z,3196
2016-06-01T06:20:59.451Z,3272
2016-06-01T06:21:58.641Z,3344
2016-06-01T06:22:58.456Z,3388
2016-06-01T06:23:59.132Z,3208
2016-06-01T06:24:58.619Z,3028
2016-06-01T06:25:58.465Z,3092
2016-06-01T06:26:58.592Z,3148
2016-06-01T06:27:58.752Z,3188
2016-06-01T06:28:58.582Z,3300
2016-06-01T06:29:58.711Z,3224
2016-06-01T06:30:59.494Z,3428
2016-06-01T06:31:58.699Z,3784
2016-06-01T06:32:58.702Z,4272
2016-06-01T06:33:58.533Z,4452
2016-06-01T06:34:58.661Z,4512
2016-06-01T06:35:58.586Z,4116
2016-06-01T06:36:58.651Z,3664
2016-06-01T06:37:58.638Z,3596
2016-06-01T06:38:58.749Z,3396
2016-06-01T06:39:59.237Z,3192
2016-06-01T06:40:59.490Z,3252
2016-06-01T06:41:58.602Z,3324
2016-06-01T06:42:58.605Z,3092
2016-06-01T06:43:58.591Z,2888
2016-06-01T06:44:58.579Z,2584
2016-06-01T06:45:59.425Z,2564
2016-06-01T06:46:58.256Z,2688
2016-06-01T06:47:58.415Z,2596
2016-06-01T06:48:58.558Z,2336
2016-06-01T06:49:58.545Z,2012
2016-06-01T06:50:58.939Z,1828
2016-06-01T06:51:58.520Z,1660
2016-06-01T06:52:58.522Z,1604
2016-06-01T06:53:58.524Z,1544
2016-06-01T06:54:58.339Z,1464
2016-06-01T06:55:58.498Z,1440
2016-06-01T06:56:58.486Z,1356
2016-06-01T06:57:58.473Z,1152
2016-06-01T06:58:58.461Z,1016
2016-06-01T06:59:58.463Z,964
2016-06-01T07:00:58.558Z,1012
2016-06-01T07:01:58.280Z,884
2016-06-01T07:02:58.424Z,780
2016-06-01T07:03:58.411Z,780
2016-06-01T07:04:58.414Z,724
2016-06-01T07:05:58.870Z,588
2016-06-01T07:06:58.247Z,488
2016-06-01T07:07:58.390Z,424
2016-06-01T07:08:59.253Z,408
2016-06-01T07:09:58.365Z,524
2016-06-01T07:10:59.399Z,768
2016-06-01T07:11:58.198Z,852
2016-06-01T07:12:58.341Z,972
2016-06-01T07:13:58.329Z,1128
2016-06-01T07:14:58.315Z,1396
2016-06-01T07:15:59.365Z,1464
2016-06-01T07:16:58.304Z,1484
2016-06-01T07:17:58.293Z,1420
2016-06-01T07:18:58.295Z,1404
2016-06-01T07:19:58.126Z,1628
2016-06-01T07:20:58.895Z,1728
2016-06-01T07:21:58.272Z,2052
2016-06-01T07:22:58.103Z,2496
2016-06-01T07:23:58.777Z,2644
2016-06-01T07:24:58.248Z,2620
2016-06-01T07:25:58.220Z,2724
2016-06-01T07:26:58.223Z,2944
2016-06-01T07:27:58.194Z,3052
2016-06-01T07:28:58.212Z,2972
2016-06-01T07:29:58.028Z,2996
2016-06-01T07:30:59.624Z,2832
2016-06-01T07:31:58.174Z,2652
2016-06-01T07:32:58.145Z,2428
2016-06-01T07:33:58.148Z,2224
2016-06-01T07:34:58.135Z,2036
2016-06-01T07:36:00.278Z,2012
2016-06-01T07:36:57.984Z,1876
2016-06-01T07:37:58.111Z,1716
2016-06-01T07:38:59.660Z,1620
2016-06-01T07:39:58.116Z,1556
2016-06-01T07:40:59.244Z,1672
2016-06-01T07:41:57.935Z,1904
2016-06-01T07:42:58.063Z,1884
2016-06-01T07:43:58.082Z,1852
2016-06-01T07:44:58.052Z,1688
2016-06-01T07:45:58.039Z,1828
2016-06-01T07:46:58.042Z,2224
2016-06-01T07:47:58.029Z,2728
2016-06-01T07:48:58.016Z,2632
2016-06-01T07:49:57.691Z,2448
2016-06-01T07:50:58.584Z,2400
2016-06-01T07:51:57.978Z,2548
2016-06-01T07:52:57.964Z,2668
2016-06-01T07:53:58.061Z,2792
2016-06-01T07:54:58.782Z,2784
2016-06-01T07:55:59.192Z,2624
2016-06-01T07:56:57.944Z,2376
2016-06-01T07:57:57.775Z,2032
2016-06-01T07:58:57.918Z,2060
2016-06-01T07:59:57.905Z,2324
2016-06-01T08:00:58.956Z,2484
2016-06-01T08:01:57.738Z,2628
2016-06-01T08:02:57.897Z,3012
2016-06-01T08:03:57.728Z,3288
2016-06-01T08:04:57.856Z,3108
2016-06-01T08:05:59.249Z,3284
2016-06-01T08:06:57.846Z,3464
2016-06-01T08:07:57.755Z,3532
2016-06-01T08:08:57.711Z,3064
2016-06-01T08:09:57.822Z,3084
2016-06-01T08:10:57.841Z,2996
2016-06-01T08:11:57.796Z,3164
2016-06-01T08:12:57.784Z,3480
2016-06-01T08:13:57.787Z,3496
2016-06-01T08:14:57.790Z,3672
2016-06-01T08:15:58.574Z,3660
2016-06-01T08:16:57.748Z,3768
2016-06-01T08:17:57.751Z,3912
2016-06-01T08:18:57.737Z,4224
2016-06-01T08:19:57.740Z,4536
2016-06-01T08:20:59.368Z,4312
2016-06-01T08:21:57.559Z,3640
2016-06-01T08:22:57.562Z,3272
2016-06-01T08:23:57.392Z,3216
2016-06-01T08:24:58.206Z,3156
2016-06-01T08:25:57.679Z,2952
2016-06-01T08:26:57.665Z,2488
2016-06-01T08:27:57.496Z,2124
2016-06-01T08:28:57.639Z,1976
2016-06-01T08:29:57.486Z,1920
2016-06-01T08:30:58.864Z,1948
2016-06-01T08:31:57.617Z,2096
2016-06-01T08:32:57.463Z,2232
2016-06-01T08:33:57.621Z,2188
2016-06-01T08:34:57.594Z,2060
2016-06-01T08:35:59.267Z,1924
2016-06-01T08:36:57.583Z,2156
2016-06-01T08:37:57.586Z,2200
2016-06-01T08:38:58.119Z,2200
2016-06-01T08:39:57.403Z,2504
2016-06-01T08:40:57.391Z,2576
2016-06-01T08:41:57.533Z,2604
2016-06-01T08:42:57.521Z,2732
2016-06-01T08:43:57.524Z,2716
2016-06-01T08:44:57.511Z,2996
2016-06-01T08:45:57.357Z,3392
2016-06-01T08:46:57.501Z,3512
2016-06-01T08:47:57.488Z,3344
2016-06-01T08:48:57.475Z,2924
2016-06-01T08:49:57.477Z,2284
2016-06-01T08:50:57.542Z,1976
2016-06-01T08:51:57.451Z,1820
2016-06-01T08:52:57.438Z,1824
2016-06-01T08:53:57.145Z,1764
2016-06-01T08:54:57.429Z,1980
2016-06-01T08:55:57.446Z,1856
2016-06-01T08:56:57.418Z,1736
2016-06-01T08:57:57.406Z,1828
2016-06-01T08:58:57.408Z,2068
2016-06-01T08:59:57.378Z,1976
2016-06-01T09:00:59.679Z,2020
2016-06-01T09:01:57.353Z,2088
2016-06-01T09:02:57.387Z,2160
2016-06-01T09:03:57.343Z,2124
2016-06-01T09:04:57.345Z,2096
2016-06-01T09:05:59.286Z,2468
2016-06-01T09:06:57.023Z,2360
2016-06-01T09:07:57.322Z,2608
2016-06-01T09:08:57.638Z,2388
2016-06-01T09:09:57.546Z,2148
2016-06-01T09:10:57.486Z,1984
2016-06-01T09:11:57.286Z,1720
2016-06-01T09:12:57.258Z,1376
2016-06-01T09:13:57.105Z,1172
2016-06-01T09:14:57.247Z,1144
2016-06-01T09:15:57.236Z,1204
2016-06-01T09:16:57.091Z,1264
2016-06-01T09:17:57.274Z,1376
2016-06-01T09:18:57.144Z,1480
2016-06-01T09:19:57.141Z,1720
2016-06-01T09:20:57.197Z,1992
2016-06-01T09:21:57.318Z,2540
2016-06-01T09:22:57.313Z,2480
2016-06-01T09:23:57.184Z,2668
2016-06-01T09:24:57.820Z,2540
2016-06-01T09:25:57.315Z,2900
2016-06-01T09:26:57.306Z,3124
2016-06-01T09:27:57.327Z,3332
2016-06-01T09:28:57.286Z,3344
2016-06-01T09:29:57.292Z,3256
2016-06-01T09:30:57.298Z,3324
2016-06-01T09:31:57.285Z,3124
2016-06-01T09:32:57.118Z,2864
2016-06-01T09:33:57.106Z,2736
2016-06-01T09:34:57.250Z,2708
2016-06-01T09:35:57.238Z,2904
2016-06-01T09:36:57.085Z,3236
2016-06-01T09:37:57.229Z,3764
2016-06-01T09:38:57.138Z,3928
2016-06-01T09:39:57.750Z,3848
2016-06-01T09:40:57.207Z,3248
2016-06-01T09:41:57.039Z,2912
2016-06-01T09:42:57.182Z,2952
2016-06-01T09:43:57.169Z,3556
2016-06-01T09:44:57.000Z,3880
2016-06-01T09:45:57.159Z,4284
2016-06-01T09:46:56.990Z,4736
2016-06-01T09:47:56.837Z,5092
2016-06-01T09:48:57.137Z,5208
2016-06-01T09:49:57.123Z,4384
2016-06-01T09:50:57.111Z,4560
2016-06-01T09:51:57.129Z,5132
2016-06-01T09:52:57.117Z,5728
2016-06-01T09:53:57.431Z,5892
2016-06-01T09:54:58.167Z,5932
2016-06-01T09:55:57.078Z,6100
2016-06-01T09:56:57.064Z,6304
2016-06-01T09:57:57.051Z,5576
2016-06-01T09:58:57.053Z,4704
2016-06-01T09:59:57.041Z,4060
2016-06-01T10:00:57.044Z,3652
2016-06-01T10:01:57.031Z,3512
2016-06-01T10:02:56.862Z,3052
2016-06-01T10:03:57.005Z,2856
2016-06-01T10:04:57.007Z,2720
2016-06-01T10:05:56.839Z,2832
2016-06-01T10:06:56.966Z,2624
2016-06-01T10:07:56.813Z,2596
2016-06-01T10:08:57.518Z,2720
2016-06-01T10:09:57.287Z,2848
2016-06-01T10:10:56.946Z,2888
2016-06-01T10:11:56.777Z,2680
2016-06-01T10:12:56.921Z,2792
2016-06-01T10:13:56.923Z,3252
2016-06-01T10:14:56.925Z,3216
2016-06-01T10:15:56.897Z,3664
2016-06-01T10:16:56.931Z,3908
2016-06-01T10:17:56.745Z,3968
2016-06-01T10:18:56.889Z,4600
2016-06-01T10:19:56.876Z,5488
2016-06-01T10:20:56.863Z,6188
2016-06-01T10:21:56.865Z,6828
2016-06-01T10:22:56.868Z,7392
2016-06-01T10:23:56.668Z,8288
2016-06-01T10:24:56.703Z,9184
2016-06-01T10:25:56.862Z,9432
2016-06-01T10:26:56.801Z,9128
2016-06-01T10:27:56.647Z,8816
2016-06-01T10:28:56.650Z,8548
2016-06-01T10:29:56.622Z,8488
2016-06-01T10:30:56.797Z,8964
2016-06-01T10:31:56.783Z,9440
2016-06-01T10:32:56.755Z,9628
2016-06-01T10:33:56.617Z,9496
2016-06-01T10:34:56.730Z,9656
2016-06-01T10:35:56.732Z,9908
2016-06-01T10:36:56.719Z,10696
2016-06-01T10:37:56.565Z,11352
2016-06-01T10:38:56.553Z,11460
2016-06-01T10:39:56.727Z,11420
2016-06-01T10:40:56.698Z,10924
2016-06-01T10:41:56.702Z,10372
2016-06-01T10:42:56.672Z,10756
2016-06-01T10:43:56.675Z,10368
2016-06-01T10:44:56.662Z,9300
2016-06-01T10:45:56.665Z,8752
2016-06-01T10:46:56.667Z,9052
2016-06-01T10:47:56.686Z,10480
2016-06-01T10:48:56.642Z,10340
2016-06-01T10:49:56.629Z,8540
2016-06-01T10:50:56.632Z,7796
2016-06-01T10:51:56.619Z,7116
2016-06-01T10:52:56.465Z,7220
2016-06-01T10:53:56.592Z,6636
2016-06-01T10:54:57.720Z,6516
2016-06-01T10:55:57.301Z,7200
2016-06-01T10:56:56.632Z,7924
2016-06-01T10:57:56.431Z,8676
2016-06-01T10:58:56.575Z,8936
2016-06-01T10:59:56.422Z,8388
2016-06-01T11:00:56.550Z,8724
2016-06-01T11:01:56.537Z,8660
2016-06-01T11:02:56.538Z,8424
2016-06-01T11:03:56.541Z,7852
2016-06-01T11:04:56.528Z,7296
2016-06-01T11:05:56.359Z,7064
2016-06-01T11:06:56.533Z,6808
2016-06-01T11:07:56.505Z,6276
2016-06-01T11:08:56.492Z,5648
2016-06-01T11:09:57.324Z,4792
2016-06-01T11:10:56.544Z,4100
2016-06-01T11:11:56.469Z,4752
2016-06-01T11:12:56.471Z,4912
2016-06-01T11:13:56.459Z,4992
2016-06-01T11:14:56.305Z,3736
2016-06-01T11:15:56.293Z,2164
2016-06-01T11:16:56.435Z,1972
2016-06-01T11:17:56.001Z,2052
2016-06-01T11:18:56.426Z,2412
2016-06-01T11:19:56.444Z,3120
2016-06-01T11:20:56.274Z,3228
2016-06-01T11:21:56.402Z,3324
2016-06-01T11:22:56.264Z,3572
2016-06-01T11:23:56.392Z,3980
2016-06-01T11:24:57.660Z,4488
2016-06-01T11:25:56.367Z,4564
2016-06-01T11:26:56.212Z,4084
2016-06-01T11:27:56.387Z,3728
2016-06-01T11:28:56.203Z,3304
2016-06-01T11:29:56.206Z,3384
2016-06-01T11:30:55.911Z,3648
2016-06-01T11:31:56.178Z,4296
2016-06-01T11:32:56.369Z,4608
2016-06-01T11:33:56.325Z,4736
2016-06-01T11:34:56.297Z,4840
2016-06-01T11:35:56.597Z,4900
2016-06-01T11:36:56.303Z,4984
2016-06-01T11:37:56.289Z,5148
2016-06-01T11:38:56.277Z,5412
2016-06-01T11:39:56.858Z,5916
2016-06-01T11:40:56.250Z,6656
2016-06-01T11:41:56.096Z,7268
2016-06-01T11:42:56.240Z,7724
2016-06-01T11:43:56.243Z,7488
2016-06-01T11:44:56.074Z,6828
2016-06-01T11:45:56.061Z,6616
2016-06-01T11:46:56.219Z,6528
2016-06-01T11:47:56.035Z,6636
2016-06-01T11:48:55.882Z,7176
2016-06-01T11:49:56.181Z,7208
2016-06-01T11:50:56.184Z,7040
2016-06-01T11:51:56.218Z,6524
2016-06-01T11:52:56.017Z,6052
2016-06-01T11:53:56.160Z,5616
2016-06-01T11:54:56.162Z,5168
2016-06-01T11:55:56.134Z,5852
2016-06-01T11:56:56.153Z,6248
2016-06-01T11:57:56.156Z,7860
2016-06-01T11:58:55.970Z,10068
2016-06-01T11:59:55.973Z,9792
2016-06-01T12:00:56.117Z,8664
2016-06-01T12:01:56.120Z,5892
2016-06-01T12:02:56.106Z,7308
2016-06-01T12:03:55.953Z,5788
2016-06-01T12:04:55.925Z,6680
2016-06-01T12:05:56.068Z,7164
2016-06-01T12:06:56.054Z,5032
2016-06-01T12:07:55.886Z,4856
2016-06-01T12:08:56.061Z,6556
2016-06-01T12:09:56.375Z,7224
2016-06-01T12:10:56.049Z,7216
2016-06-01T12:11:55.866Z,6500
2016-06-01T12:12:56.008Z,6324
2016-06-01T12:13:56.011Z,6256
2016-06-01T12:14:56.014Z,6016
2016-06-01T12:15:55.985Z,5864
2016-06-01T12:16:55.988Z,5980
2016-06-01T12:17:55.974Z,5772
2016-06-01T12:18:55.993Z,6240
2016-06-01T12:19:55.808Z,6672
2016-06-01T12:20:55.982Z,7828
2016-06-01T12:21:55.954Z,7568
2016-06-01T12:22:55.785Z,7428
2016-06-01T12:23:55.944Z,7456
2016-06-01T12:24:56.040Z,8064
2016-06-01T12:25:55.778Z,8220
2016-06-01T12:26:55.921Z,9608
2016-06-01T12:27:55.751Z,10656
2016-06-01T12:28:55.896Z,10524
2016-06-01T12:29:55.742Z,10964
2016-06-01T12:30:55.728Z,12792
2016-06-01T12:31:55.888Z,12288
2016-06-01T12:32:55.859Z,10724
2016-06-01T12:33:55.549Z,10336
2016-06-01T12:34:55.848Z,10612
2016-06-01T12:35:55.898Z,10664
2016-06-01T12:36:55.853Z,10172
2016-06-01T12:37:55.842Z,9976
2016-06-01T12:38:55.844Z,9728
2016-06-01T12:39:55.909Z,9520
2016-06-01T12:40:55.647Z,9800
2016-06-01T12:41:55.836Z,11984
2016-06-01T12:42:55.808Z,15884
2016-06-01T12:43:55.827Z,19968
2016-06-01T12:44:55.797Z,20800
2016-06-01T12:45:55.768Z,20544
2016-06-01T12:46:55.788Z,22560
2016-06-01T12:47:55.462Z,31680
2016-06-01T12:48:55.761Z,23904
2016-06-01T12:49:55.749Z,21376
2016-06-01T12:50:55.751Z,21984
2016-06-01T12:51:55.738Z,29152
2016-06-01T12:52:55.601Z,31488
2016-06-01T12:53:55.744Z,30816
2016-06-01T12:54:56.059Z,25760
2016-06-01T12:55:55.718Z,24800
2016-06-01T12:56:55.721Z,41888
2016-06-01T12:57:55.707Z,70528
2016-06-01T12:58:55.710Z,42400
2016-06-01T12:59:55.698Z,36448
2016-06-01T13:00:55.684Z,41728
2016-06-01T13:01:55.671Z,64704
2016-06-01T13:02:55.674Z,38560
2016-06-01T13:03:55.676Z,45504
2016-06-01T13:04:55.539Z,29984
2016-06-01T13:05:55.682Z,20832
2016-06-01T13:06:55.528Z,22496
2016-06-01T13:07:55.516Z,15460
2016-06-01T13:08:55.674Z,12752
2016-06-01T13:09:55.927Z,11932
2016-06-01T13:10:55.649Z,13260
2016-06-01T13:11:55.652Z,11808
2016-06-01T13:12:55.654Z,18464
2016-06-01T13:13:55.641Z,9572
2016-06-01T13:14:55.487Z,7864
2016-06-01T13:15:55.646Z,12732
2016-06-01T13:16:55.633Z,16704
2016-06-01T13:17:55.652Z,15392
2016-06-01T13:18:55.702Z,14056
2016-06-01T13:19:55.610Z,14668
2016-06-01T13:20:55.613Z,11184
2016-06-01T13:21:55.616Z,8660
2016-06-01T13:22:55.447Z,7612
2016-06-01T13:23:55.590Z,8008
2016-06-01T13:24:56.108Z,7444
2016-06-01T13:25:55.580Z,9528
2016-06-01T13:26:55.660Z,11320
2016-06-01T13:27:55.615Z,10392
2016-06-01T13:28:55.588Z,7268
2016-06-01T13:29:55.590Z,5192
2016-06-01T13:30:55.578Z,4472
2016-06-01T13:31:55.580Z,4408
2016-06-01T13:32:55.598Z,3516
2016-06-01T13:33:55.601Z,4020
2016-06-01T13:34:55.588Z,4036
2016-06-01T13:35:55.560Z,3504
2016-06-01T13:36:55.609Z,3748
2016-06-01T13:37:55.581Z,6200
2016-06-01T13:38:55.552Z,7492